Time;durP1;ratioP1;P1;durP2;ratioP2;P2;SDS_P1;SDS_P2;PMS_P1;PMS_P2;Temp;Humidity;BMP_temperature;BMP_pressure;BME280_temperature;BME280_humidity;BME280_pressure;Samples;Min_cycle;Max_cycle;Signal;HPM_P1;HPM_P2
2022/11/15 00:00:08;;;;;;;32.65;20.35;;;8.60;99.90;;;;;;5090217;28;20517;-74
2022/11/15 00:02:33;;;;;;;27.73;18.85;;;8.60;99.90;;;;;;5089698;28;20039;-74
2022/11/15 00:04:59;;;;;;;28.23;20.10;;;8.50;99.90;;;;;;5073434;28;20036;-74
2022/11/15 00:07:24;;;;;;;27.00;18.42;;;8.40;99.90;;;;;;5073429;28;20529;-75
2022/11/15 00:09:50;;;;;;;32.25;20.58;;;8.50;99.90;;;;;;5090185;28;20042;-74
2022/11/15 00:12:15;;;;;;;29.55;20.80;;;8.50;99.90;;;;;;5073259;28;20045;-74
2022/11/15 00:14:41;;;;;;;32.40;20.67;;;8.30;99.90;;;;;;5090101;28;20109;-74
2022/11/15 00:17:06;;;;;;;29.67;19.92;;;8.20;99.90;;;;;;5090178;28;20066;-74
2022/11/15 00:19:33;;;;;;;30.02;18.92;;;8.20;99.90;;;;;;5090088;28;20447;-74
2022/11/15 00:21:58;;;;;;;30.20;20.17;;;8.10;99.90;;;;;;5091364;28;20036;-74
2022/11/15 00:24:24;;;;;;;32.22;21.40;;;8.10;99.90;;;;;;5090077;28;20042;-74
2022/11/15 00:26:49;;;;;;;30.92;21.38;;;8.00;99.90;;;;;;5090183;28;20040;-74
2022/11/15 00:29:15;;;;;;;28.50;20.08;;;8.10;99.90;;;;;;5091530;28;20126;-74
2022/11/15 00:31:40;;;;;;;28.65;19.38;;;8.00;99.90;;;;;;5091131;28;20514;-74
2022/11/15 00:34:06;;;;;;;31.63;21.20;;;8.00;99.90;;;;;;5091277;28;20038;-74
2022/11/15 00:36:35;;;;;;;27.90;18.95;;;8.00;99.90;;;;;;5090006;28;20047;-74
2022/11/15 00:39:00;;;;;;;33.03;20.83;;;8.00;99.90;;;;;;5090374;28;20040;-74
2022/11/15 00:41:26;;;;;;;31.40;21.25;;;7.90;99.90;;;;;;5089825;28;20547;-74
2022/11/15 00:43:51;;;;;;;30.33;19.67;;;8.00;99.90;;;;;;5090973;28;20494;-74
2022/11/15 00:46:17;;;;;;;29.88;20.48;;;8.00;99.90;;;;;;5091199;28;20500;-74
2022/11/15 00:48:42;;;;;;;33.38;21.27;;;8.00;99.90;;;;;;5089968;28;20664;-74
2022/11/15 00:51:08;;;;;;;29.85;21.58;;;7.80;99.90;;;;;;5090048;28;20044;-74
2022/11/15 00:53:34;;;;;;;31.13;20.92;;;7.70;99.90;;;;;;5089589;28;20036;-74
2022/11/15 00:55:59;;;;;;;32.85;20.42;;;7.70;99.90;;;;;;5089766;28;20048;-74
2022/11/15 00:58:25;;;;;;;32.15;19.90;;;7.70;99.90;;;;;;5089759;28;20036;-74
2022/11/15 01:00:51;;;;;;;27.90;19.58;;;7.80;99.90;;;;;;5093020;28;20040;-74
2022/11/15 01:03:16;;;;;;;29.55;19.17;;;7.70;99.90;;;;;;5093061;28;20044;-74
2022/11/15 01:05:42;;;;;;;28.77;19.23;;;7.60;99.90;;;;;;5093417;28;20081;-74
2022/11/15 01:08:15;;;;;;;28.17;19.85;;;7.60;99.90;;;;;;5093316;28;20043;-73
2022/11/15 01:10:41;;;;;;;29.40;19.40;;;7.50;99.90;;;;;;5093672;28;20051;-74
2022/11/15 01:13:07;;;;;;;27.42;18.45;;;7.50;99.90;;;;;;5092905;28;20043;-74
2022/11/15 01:15:33;;;;;;;28.83;18.45;;;7.60;99.90;;;;;;5094541;28;20443;-74
2022/11/15 01:17:58;;;;;;;27.85;19.90;;;7.40;99.90;;;;;;5094380;28;20093;-74
2022/11/15 01:20:24;;;;;;;27.30;17.17;;;7.60;99.90;;;;;;5093038;28;20048;-73
2022/11/15 01:22:50;;;;;;;29.05;18.80;;;7.50;99.90;;;;;;5092707;28;20119;-73
2022/11/15 01:25:16;;;;;;;28.73;20.42;;;7.50;99.90;;;;;;5076464;28;20096;-74
2022/11/15 01:27:41;;;;;;;30.67;19.10;;;7.40;99.90;;;;;;5093309;28;20536;-74
2022/11/15 01:30:08;;;;;;;27.50;19.65;;;7.60;99.90;;;;;;5094213;28;20558;-74
2022/11/15 01:32:33;;;;;;;28.27;18.25;;;7.50;99.90;;;;;;5092642;28;20040;-74
2022/11/15 01:34:59;;;;;;;30.05;20.90;;;7.40;99.90;;;;;;5092845;28;20040;-74
2022/11/15 01:37:24;;;;;;;30.45;19.40;;;7.60;99.90;;;;;;5092991;28;20394;-74
2022/11/15 01:39:50;;;;;;;31.23;19.23;;;7.50;99.90;;;;;;5093894;28;20052;-74
2022/11/15 01:42:16;;;;;;;34.60;20.80;;;7.50;99.90;;;;;;5093849;28;20052;-74
2022/11/15 01:44:50;;;;;;;33.85;20.75;;;7.50;99.90;;;;;;5092725;28;20040;-74
2022/11/15 01:47:26;;;;;;;28.25;19.77;;;7.50;99.90;;;;;;5092617;28;20047;-74
2022/11/15 01:50:03;;;;;;;31.23;18.35;;;7.60;99.90;;;;;;5092527;28;20591;-74
2022/11/15 01:52:32;;;;;;;31.48;19.00;;;7.80;99.90;;;;;;5092448;28;20126;-74
2022/11/15 01:55:15;;;;;;;32.55;20.05;;;7.80;99.90;;;;;;5092308;28;20055;-74
2022/11/15 01:57:45;;;;;;;34.13;20.23;;;7.80;99.90;;;;;;5092459;28;20378;-74
2022/11/15 02:00:11;;;;;;;32.30;19.90;;;7.90;99.90;;;;;;5092601;28;20040;-74
2022/11/15 02:02:37;;;;;;;31.35;18.90;;;7.80;99.90;;;;;;5092050;28;20442;-74
2022/11/15 02:05:04;;;;;;;33.60;19.63;;;7.80;99.90;;;;;;5092200;28;20047;-74
2022/11/15 02:07:31;;;;;;;31.20;19.27;;;8.00;99.90;;;;;;5075309;28;20084;-74
2022/11/15 02:10:06;;;;;;;30.13;18.92;;;7.90;99.90;;;;;;5092051;28;20386;-74
2022/11/15 02:12:32;;;;;;;32.10;18.92;;;7.90;99.90;;;;;;5092114;28;20409;-74
2022/11/15 02:14:57;;;;;;;32.92;18.52;;;8.10;99.90;;;;;;5092054;28;20039;-74
2022/11/15 02:17:29;;;;;;;34.33;19.90;;;8.00;99.90;;;;;;5075253;28;20114;-74
2022/11/15 02:20:30;;;;;;;34.38;19.25;;;8.00;99.90;;;;;;5093025;28;20072;-74
2022/11/15 02:23:01;;;;;;;30.90;17.83;;;8.00;99.90;;;;;;5091775;28;20118;-74
2022/11/15 02:25:40;;;;;;;32.30;20.08;;;8.10;99.90;;;;;;5091806;28;20036;-74
2022/11/15 02:28:24;;;;;;;33.80;20.00;;;8.00;99.90;;;;;;5092064;28;20032;-74
2022/11/15 02:31:03;;;;;;;36.92;19.75;;;8.20;99.90;;;;;;5091984;28;20040;-74
2022/11/15 02:33:54;;;;;;;39.33;19.10;;;8.10;99.90;;;;;;5091474;28;20043;-74
2022/11/15 02:36:44;;;;;;;32.92;18.55;;;8.20;99.90;;;;;;5091922;28;20127;-74
2022/11/15 02:39:44;;;;;;;31.60;19.63;;;8.10;99.90;;;;;;5091646;28;20126;-74
2022/11/15 02:45:24;;;;;;;31.15;19.52;;;8.20;99.90;;;;;;5092792;28;20048;-74
2022/11/15 02:47:54;;;;;;;34.75;20.15;;;8.10;99.90;;;;;;5091356;28;20036;-74
2022/11/15 02:50:23;;;;;;;32.28;18.70;;;8.10;99.90;;;;;;5092595;28;20509;-74
2022/11/15 02:52:49;;;;;;;36.15;19.75;;;8.30;99.90;;;;;;5092254;28;20032;-74
2022/11/15 02:55:31;;;;;;;39.15;20.88;;;8.30;99.90;;;;;;5091478;28;20088;-75
2022/11/15 02:58:37;;;;;;;31.20;19.10;;;8.20;99.90;;;;;;5091206;28;20118;-74
2022/11/15 03:01:18;;;;;;;34.47;19.15;;;8.40;99.90;;;;;;5091165;28;20044;-74
2022/11/15 03:04:23;;;;;;;33.72;18.67;;;8.30;99.90;;;;;;5090802;28;20040;-74
2022/11/15 03:07:07;;;;;;;35.28;21.13;;;8.40;99.90;;;;;;5087000;28;20528;-74
2022/11/15 03:09:54;;;;;;;33.72;19.90;;;8.30;99.90;;;;;;5091108;28;20044;-74
2022/11/15 03:12:26;;;;;;;32.40;18.52;;;8.20;99.90;;;;;;5090823;28;20143;-74
2022/11/15 03:15:04;;;;;;;33.40;19.98;;;8.40;99.90;;;;;;5091258;28;20365;-74
2022/11/15 03:17:35;;;;;;;30.73;17.88;;;8.30;99.90;;;;;;5091244;28;20040;-74
2022/11/15 03:20:04;;;;;;;32.65;20.08;;;8.40;99.90;;;;;;5091031;28;20052;-74
2022/11/15 03:22:34;;;;;;;30.80;18.58;;;8.30;99.90;;;;;;5091135;28;20043;-74
2022/11/15 03:25:04;;;;;;;33.95;20.33;;;8.30;99.90;;;;;;5090892;28;20040;-74
2022/11/15 03:27:37;;;;;;;33.22;19.65;;;8.50;99.90;;;;;;5090695;28;20046;-74
2022/11/15 03:30:07;;;;;;;33.00;18.90;;;8.40;99.90;;;;;;5091031;28;20436;-74
2022/11/15 03:32:41;;;;;;;32.58;18.80;;;8.30;99.90;;;;;;5090451;28;20040;-74
2022/11/15 03:35:09;;;;;;;32.65;19.25;;;8.30;99.90;;;;;;5074350;28;20159;-75
2022/11/15 03:37:48;;;;;;;37.58;20.42;;;8.50;99.90;;;;;;5090704;28;20040;-74
2022/11/15 03:40:14;;;;;;;35.67;18.98;;;8.30;99.90;;;;;;5090574;28;20218;-74
2022/11/15 03:42:48;;;;;;;34.17;19.92;;;8.30;99.90;;;;;;5090203;28;20680;-74
2022/11/15 03:45:19;;;;;;;32.03;19.80;;;8.50;99.90;;;;;;5091764;28;20417;-74
2022/11/15 03:47:48;;;;;;;34.40;20.25;;;8.30;99.90;;;;;;5090463;28;20069;-74
2022/11/15 03:50:19;;;;;;;35.25;20.50;;;8.30;99.90;;;;;;5090420;28;20040;-74
2022/11/15 03:52:47;;;;;;;35.90;20.48;;;8.50;99.90;;;;;;5090054;28;20059;-74
2022/11/15 03:55:16;;;;;;;39.92;20.70;;;8.50;99.90;;;;;;5090322;28;20044;-74
2022/11/15 03:57:42;;;;;;;38.78;20.42;;;8.50;99.90;;;;;;5090641;28;20127;-74
2022/11/15 04:00:08;;;;;;;42.78;20.42;;;8.50;99.90;;;;;;5090062;28;20127;-74
2022/11/15 04:02:34;;;;;;;41.17;21.45;;;8.50;99.90;;;;;;5089738;28;20077;-74
2022/11/15 04:04:59;;;;;;;37.53;21.75;;;8.40;99.90;;;;;;5091604;28;20040;-74
2022/11/15 04:07:25;;;;;;;35.85;20.88;;;8.40;99.90;;;;;;5091695;28;20148;-74
2022/11/15 04:10:02;;;;;;;40.90;22.30;;;8.40;99.90;;;;;;5090172;28;20036;-74
2022/11/15 04:12:32;;;;;;;43.97;22.25;;;8.50;99.90;;;;;;5089798;28;20493;-74
2022/11/15 04:15:09;;;;;;;41.47;23.80;;;8.60;99.90;;;;;;5090176;28;20077;-74
2022/11/15 04:17:48;;;;;;;48.45;24.83;;;8.40;99.90;;;;;;5090508;28;20393;-74
2022/11/15 04:25:59;;;;;;;52.20;26.23;;;8.50;99.90;;;;;;5090084;28;20083;-74
2022/11/15 04:28:24;;;;;;;45.30;24.60;;;8.40;99.90;;;;;;5090115;28;20119;-74
2022/11/15 04:30:50;;;;;;;49.92;23.95;;;8.60;99.90;;;;;;5090048;28;20127;-74
2022/11/15 04:33:16;;;;;;;47.38;24.70;;;8.40;99.90;;;;;;5090843;28;20042;-74
2022/11/15 04:35:42;;;;;;;48.72;24.08;;;8.60;99.90;;;;;;5093906;28;20043;-74
2022/11/15 04:38:10;;;;;;;49.88;25.00;;;8.40;99.90;;;;;;5095572;28;20042;-74
2022/11/15 04:40:37;;;;;;;52.83;26.73;;;8.50;99.90;;;;;;5093854;28;20040;-74
2022/11/15 04:43:03;;;;;;;46.35;24.83;;;8.40;99.90;;;;;;5093589;28;20040;-74
2022/11/15 04:45:30;;;;;;;54.88;24.48;;;8.40;99.90;;;;;;5093934;28;20036;-74
2022/11/15 04:47:55;;;;;;;54.80;28.23;;;8.50;99.90;;;;;;5094962;28;20477;-74
2022/11/15 04:50:21;;;;;;;56.35;27.33;;;8.60;99.90;;;;;;5094961;28;20078;-74
2022/11/15 04:52:51;;;;;;;62.85;27.30;;;8.40;99.90;;;;;;5093584;28;20040;-74
2022/11/15 04:55:17;;;;;;;51.58;25.23;;;8.50;99.90;;;;;;5076710;28;20078;-74
2022/11/15 04:57:43;;;;;;;52.80;25.65;;;8.60;99.90;;;;;;5093894;28;20098;-74
2022/11/15 05:00:11;;;;;;;52.35;25.73;;;8.50;99.90;;;;;;5076507;28;20093;-74
2022/11/15 05:05:21;;;;;;;51.92;26.23;;;8.40;99.90;;;;;;5094857;28;20069;-74
2022/11/15 05:07:47;;;;;;;53.53;27.15;;;8.50;99.90;;;;;;5094675;28;20040;-74
2022/11/15 05:10:12;;;;;;;58.50;29.00;;;8.60;99.90;;;;;;5093294;28;20187;-74
2022/11/15 05:12:38;;;;;;;59.42;29.38;;;8.60;99.90;;;;;;5093040;28;20040;-74
2022/11/15 05:15:04;;;;;;;51.83;26.40;;;8.50;99.90;;;;;;5093057;28;20100;-74
2022/11/15 05:17:29;;;;;;;54.35;28.98;;;8.50;99.90;;;;;;5093101;28;20127;-74
2022/11/15 05:19:55;;;;;;;59.80;31.02;;;8.60;99.90;;;;;;5093055;28;20129;-74
2022/11/15 05:22:21;;;;;;;64.75;31.00;;;8.80;99.90;;;;;;5092738;28;20032;-74
2022/11/15 05:24:47;;;;;;;66.85;30.35;;;8.60;99.90;;;;;;5094376;28;20040;-74
2022/11/15 05:27:12;;;;;;;72.18;31.17;;;8.60;99.90;;;;;;5093284;28;20040;-74
2022/11/15 05:29:38;;;;;;;71.20;30.67;;;8.60;99.90;;;;;;5092837;28;20038;-74
2022/11/15 05:32:06;;;;;;;78.72;34.58;;;8.70;99.90;;;;;;5092796;28;20068;-74
2022/11/15 05:34:32;;;;;;;82.05;34.65;;;8.90;99.90;;;;;;5092832;28;20047;-75
2022/11/15 05:36:58;;;;;;;68.13;32.85;;;8.70;99.90;;;;;;5092815;28;20036;-74
2022/11/15 05:39:25;;;;;;;76.28;35.03;;;8.90;99.90;;;;;;5092889;28;20040;-74
2022/11/15 05:41:55;;;;;;;87.97;38.17;;;8.70;99.90;;;;;;5092651;28;20075;-74
2022/11/15 05:44:23;;;;;;;79.03;36.47;;;8.70;99.90;;;;;;5092485;28;20382;-74
2022/11/15 05:46:53;;;;;;;90.28;37.08;;;8.80;99.90;;;;;;5092367;28;20079;-74
2022/11/15 05:49:21;;;;;;;86.18;36.90;;;8.90;99.90;;;;;;5092536;28;20131;-74
2022/11/15 05:51:48;;;;;;;96.65;41.55;;;8.80;99.90;;;;;;5092532;28;20032;-74
2022/11/15 05:54:16;;;;;;;103.45;40.28;;;8.90;99.90;;;;;;5092107;28;20497;-74
2022/11/15 05:56:42;;;;;;;108.55;40.90;;;8.80;99.90;;;;;;5092328;28;20039;-75
2022/11/15 05:59:08;;;;;;;103.75;41.95;;;9.00;99.90;;;;;;5092294;28;20513;-74
2022/11/15 06:01:34;;;;;;;109.75;44.55;;;8.90;99.90;;;;;;5092087;28;20048;-74
2022/11/15 06:03:59;;;;;;;92.15;40.45;;;8.80;99.90;;;;;;5075130;28;20519;-75
2022/11/15 06:06:28;;;;;;;94.18;43.72;;;9.00;99.90;;;;;;5092386;28;20042;-74
2022/11/15 06:08:53;;;;;;;106.05;46.13;;;8.90;99.90;;;;;;5092257;28;20034;-74
2022/11/15 06:11:19;;;;;;;103.47;42.65;;;8.90;99.90;;;;;;5091946;28;20040;-74
2022/11/15 06:13:45;;;;;;;100.32;43.00;;;9.00;99.90;;;;;;5091727;28;20409;-74
2022/11/15 06:16:10;;;;;;;107.78;43.78;;;9.00;99.90;;;;;;5092258;28;20044;-74
2022/11/15 06:18:36;;;;;;;103.00;44.85;;;9.00;99.90;;;;;;5091977;28;20040;-75
2022/11/15 06:21:02;;;;;;;101.22;44.92;;;9.20;99.90;;;;;;5091921;28;20032;-74
2022/11/15 06:23:31;;;;;;;103.55;45.72;;;9.10;99.90;;;;;;5091513;28;20036;-74
2022/11/15 06:25:58;;;;;;;102.20;43.58;;;9.10;99.90;;;;;;5093091;28;20076;-75
2022/11/15 06:28:24;;;;;;;91.50;42.38;;;9.30;99.90;;;;;;5091766;28;20044;-74
2022/11/15 06:30:49;;;;;;;90.13;42.80;;;9.10;99.90;;;;;;5091723;28;20042;-74
2022/11/15 06:33:15;;;;;;;83.35;43.00;;;9.20;99.90;;;;;;5091391;28;20124;-75
2022/11/15 06:35:40;;;;;;;102.25;43.95;;;9.20;99.90;;;;;;5074796;28;20123;-75
2022/11/15 06:38:10;;;;;;;82.90;40.97;;;9.40;99.90;;;;;;5091662;28;20075;-75
2022/11/15 06:40:37;;;;;;;78.90;41.05;;;9.40;99.90;;;;;;5091498;28;20051;-75
2022/11/15 06:43:03;;;;;;;94.25;43.58;;;9.20;99.90;;;;;;5091121;28;20036;-74
2022/11/15 06:45:29;;;;;;;90.82;43.50;;;9.30;99.90;;;;;;5074742;28;20040;-74
2022/11/15 06:47:55;;;;;;;90.40;42.72;;;9.40;99.90;;;;;;5093002;28;20044;-75
2022/11/15 06:50:20;;;;;;;102.15;46.15;;;9.50;99.90;;;;;;5091361;28;20073;-75
2022/11/15 06:52:46;;;;;;;91.43;41.20;;;9.30;99.90;;;;;;5090921;28;20043;-75
2022/11/15 06:55:12;;;;;;;64.32;36.88;;;9.50;99.90;;;;;;5092873;28;20181;-75
2022/11/15 06:57:45;;;;;;;90.25;39.67;;;9.40;99.90;;;;;;5090251;28;20035;-75
2022/11/15 07:00:11;;;;;;;76.25;38.67;;;9.50;99.90;;;;;;5091431;28;20516;-74
2022/11/15 07:02:37;;;;;;;96.90;41.83;;;9.60;99.90;;;;;;5090787;28;20047;-75
2022/11/15 07:05:02;;;;;;;79.95;39.28;;;9.50;99.90;;;;;;5091496;28;20398;-75
2022/11/15 07:07:28;;;;;;;92.55;42.28;;;9.60;99.90;;;;;;5091229;28;20149;-75
2022/11/15 07:09:53;;;;;;;74.13;36.72;;;9.50;99.90;;;;;;5091342;28;20089;-75
2022/11/15 07:12:19;;;;;;;70.03;38.30;;;9.70;99.90;;;;;;5090656;28;20043;-75
2022/11/15 07:14:44;;;;;;;79.57;40.65;;;9.60;99.90;;;;;;5092040;28;20123;-75
2022/11/15 07:17:10;;;;;;;82.28;39.72;;;9.60;99.90;;;;;;5074258;28;20067;-74
2022/11/15 07:19:35;;;;;;;73.43;37.42;;;9.70;99.90;;;;;;5090882;28;20127;-75
2022/11/15 07:22:01;;;;;;;75.82;36.53;;;9.60;99.90;;;;;;5090567;28;20039;-75
2022/11/15 07:24:26;;;;;;;63.92;35.15;;;9.80;99.90;;;;;;5091967;28;20039;-75
2022/11/15 07:26:52;;;;;;;74.57;37.17;;;9.80;99.90;;;;;;5090682;28;20442;-75
2022/11/15 07:29:17;;;;;;;85.75;37.95;;;9.80;99.90;;;;;;5073925;28;20074;-75
2022/11/15 07:31:43;;;;;;;72.60;36.65;;;9.70;99.90;;;;;;5092118;28;20409;-75
2022/11/15 07:34:09;;;;;;;71.85;35.03;;;9.90;99.90;;;;;;5090503;28;20547;-75
2022/11/15 07:36:35;;;;;;;68.70;34.60;;;9.90;99.90;;;;;;5090607;28;20119;-75
2022/11/15 07:39:00;;;;;;;80.00;36.65;;;9.80;99.90;;;;;;5091780;28;20568;-75
2022/11/15 07:41:26;;;;;;;68.00;35.55;;;9.90;99.90;;;;;;5090372;28;20048;-75
2022/11/15 07:43:52;;;;;;;66.60;36.88;;;9.90;99.90;;;;;;5091553;28;20072;-75
2022/11/15 07:46:18;;;;;;;84.40;40.20;;;9.90;99.90;;;;;;5091996;28;20040;-75
2022/11/15 07:48:43;;;;;;;77.90;38.70;;;9.90;99.90;;;;;;5092051;28;20043;-75
2022/11/15 07:51:14;;;;;;;81.35;40.53;;;10.00;99.90;;;;;;5090549;28;20031;-75
2022/11/15 07:53:39;;;;;;;69.47;36.88;;;10.00;99.90;;;;;;5090550;28;20081;-75
2022/11/15 07:56:09;;;;;;;60.85;34.08;;;10.10;99.90;;;;;;5090699;28;20497;-75
2022/11/15 07:58:35;;;;;;;72.63;35.25;;;10.10;99.90;;;;;;5090431;28;20036;-75
2022/11/15 08:01:05;;;;;;;69.07;35.78;;;10.20;99.90;;;;;;5091569;28;20047;-75
2022/11/15 08:03:30;;;;;;;64.93;34.38;;;10.10;99.90;;;;;;5091385;28;20063;-75
2022/11/15 08:05:56;;;;;;;65.70;33.47;;;10.20;99.90;;;;;;5090498;28;20505;-75
2022/11/15 08:08:21;;;;;;;65.00;34.50;;;10.20;99.90;;;;;;5093365;28;20123;-75
2022/11/15 08:10:47;;;;;;;55.22;31.08;;;10.30;99.90;;;;;;5095074;28;20142;-75
2022/11/15 08:13:13;;;;;;;59.60;32.45;;;10.10;99.90;;;;;;5095954;28;20063;-75
2022/11/15 08:15:39;;;;;;;55.67;30.08;;;10.30;99.90;;;;;;5094413;28;20040;-75
2022/11/15 08:18:14;;;;;;;56.38;30.60;;;10.30;99.90;;;;;;5094552;28;20409;-75
2022/11/15 08:20:40;;;;;;;62.70;30.80;;;10.30;99.90;;;;;;5094415;28;20036;-75
2022/11/15 08:23:07;;;;;;;59.20;30.90;;;10.30;99.90;;;;;;5094651;28;20119;-75
2022/11/15 08:25:34;;;;;;;52.50;29.70;;;10.30;99.90;;;;;;5094178;28;20044;-74
2022/11/15 08:28:02;;;;;;;63.08;32.72;;;10.30;99.90;;;;;;5094443;28;20036;-74
2022/11/15 08:30:29;;;;;;;58.03;30.23;;;10.30;99.90;;;;;;5094314;28;20105;-74
2022/11/15 08:32:57;;;;;;;57.22;29.13;;;10.50;99.90;;;;;;5093648;28;20100;-74
2022/11/15 08:35:23;;;;;;;53.13;29.77;;;10.60;99.90;;;;;;5094289;28;20123;-74
2022/11/15 08:37:49;;;;;;;58.00;29.40;;;10.50;99.90;;;;;;5077183;28;20035;-74
2022/11/15 08:40:15;;;;;;;54.80;29.40;;;10.70;99.90;;;;;;5094032;28;20107;-74
2022/11/15 08:42:41;;;;;;;55.90;29.55;;;10.60;99.90;;;;;;5093530;28;20036;-74
2022/11/15 08:45:07;;;;;;;52.83;28.63;;;10.70;99.90;;;;;;5094053;28;20043;-74
2022/11/15 08:47:33;;;;;;;50.90;28.75;;;10.70;99.90;;;;;;5093824;28;20082;-74
2022/11/15 08:49:59;;;;;;;48.58;28.33;;;10.70;99.90;;;;;;5095256;28;20038;-74
2022/11/15 08:52:25;;;;;;;46.78;28.45;;;10.90;99.90;;;;;;5093735;28;20032;-74
2022/11/15 08:54:50;;;;;;;46.20;28.52;;;10.90;99.90;;;;;;5093870;28;20043;-74
2022/11/15 08:57:16;;;;;;;51.97;29.85;;;10.90;99.90;;;;;;5093842;28;20047;-74
2022/11/15 08:59:41;;;;;;;52.00;28.52;;;10.90;99.90;;;;;;5093556;28;20039;-74
2022/11/15 09:02:15;;;;;;;45.15;26.83;;;11.00;99.90;;;;;;5093093;28;20036;-74
2022/11/15 09:04:43;;;;;;;43.47;27.20;;;11.10;99.90;;;;;;5093417;28;20047;-74
2022/11/15 09:07:10;;;;;;;44.78;27.92;;;11.00;99.90;;;;;;5093538;28;20047;-74
2022/11/15 09:09:36;;;;;;;42.40;27.52;;;11.10;99.90;;;;;;5094772;28;20044;-74
2022/11/15 09:12:02;;;;;;;51.20;28.73;;;11.10;99.90;;;;;;5093325;28;20386;-74
2022/11/15 09:14:27;;;;;;;43.63;26.02;;;11.20;99.90;;;;;;5093199;28;20040;-74
2022/11/15 09:16:53;;;;;;;47.55;30.23;;;11.20;99.90;;;;;;5085327;28;20036;-74
2022/11/15 09:19:18;;;;;;;43.67;26.67;;;11.20;99.90;;;;;;5089126;28;20028;-74
2022/11/15 09:21:47;;;;;;;44.65;26.42;;;11.10;99.90;;;;;;5087648;28;20065;-74
2022/11/15 09:24:13;;;;;;;47.75;28.35;;;11.20;99.90;;;;;;5092856;28;20036;-75
2022/11/15 09:26:39;;;;;;;44.95;26.90;;;11.20;99.90;;;;;;5094575;28;20055;-74
2022/11/15 09:29:07;;;;;;;46.65;27.73;;;11.30;99.90;;;;;;5093073;28;20028;-74
2022/11/15 09:31:33;;;;;;;45.65;27.75;;;11.30;99.90;;;;;;5088297;28;20047;-74
2022/11/15 09:33:58;;;;;;;42.80;28.15;;;11.30;99.90;;;;;;5077070;28;20041;-74
2022/11/15 09:36:24;;;;;;;43.45;27.83;;;11.40;99.90;;;;;;5072596;28;20047;-75
2022/11/15 09:38:50;;;;;;;44.50;26.80;;;11.50;99.90;;;;;;5083271;28;20067;-75
2022/11/15 09:41:21;;;;;;;40.47;25.13;;;11.40;99.90;;;;;;5058271;28;20043;-74
2022/11/15 09:44:00;;;;;;;42.92;26.02;;;11.40;99.90;;;;;;5072495;28;20527;-73
2022/11/15 09:46:35;;;;;;;41.78;25.48;;;11.50;99.90;;;;;;5072274;28;20043;-75
2022/11/15 09:49:02;;;;;;;42.15;26.13;;;11.50;99.90;;;;;;5072597;28;20036;-74
2022/11/15 09:51:29;;;;;;;39.80;24.98;;;11.70;99.90;;;;;;5072507;28;20059;-75
2022/11/15 09:54:06;;;;;;;45.22;25.10;;;11.60;99.90;;;;;;5072091;28;20055;-75
2022/11/15 09:56:36;;;;;;;39.08;24.98;;;11.60;99.90;;;;;;5073643;28;20490;-75
2022/11/15 09:59:31;;;;;;;40.38;24.88;;;11.60;99.90;;;;;;5072315;28;20231;-75
2022/11/15 10:02:19;;;;;;;37.70;24.77;;;11.80;99.90;;;;;;5071938;28;20474;-75
2022/11/15 10:04:46;;;;;;;36.03;24.33;;;11.80;99.90;;;;;;5072036;28;20040;-75
2022/11/15 10:07:40;;;;;;;38.60;23.42;;;11.70;99.90;;;;;;5072102;28;20032;-75
2022/11/15 10:10:21;;;;;;;39.83;23.88;;;11.80;99.90;;;;;;5072348;28;20510;-75
2022/11/15 10:12:51;;;;;;;37.00;23.55;;;11.80;99.90;;;;;;5071657;28;20052;-75
2022/11/15 10:15:22;;;;;;;37.00;24.25;;;11.80;99.90;;;;;;5072243;28;20036;-75
2022/11/15 10:18:16;;;;;;;38.50;23.67;;;11.80;99.90;;;;;;5071944;28;20410;-75
2022/11/15 10:20:49;;;;;;;36.03;23.48;;;11.80;99.90;;;;;;5071980;28;20123;-75
2022/11/15 10:23:18;;;;;;;34.80;22.95;;;11.90;99.90;;;;;;5071286;28;20111;-74
2022/11/15 10:25:44;;;;;;;39.72;23.55;;;11.90;99.90;;;;;;5071605;28;20039;-72
2022/11/15 10:28:28;;;;;;;32.67;22.13;;;11.80;99.90;;;;;;5072949;28;20354;-73
2022/11/15 10:30:58;;;;;;;34.70;21.25;;;12.10;99.90;;;;;;5070988;28;20127;-72
2022/11/15 10:33:29;;;;;;;29.35;20.58;;;12.10;99.90;;;;;;5072456;28;20119;-72
2022/11/15 10:36:12;;;;;;;32.95;21.35;;;12.00;99.90;;;;;;5072728;28;20068;-72
2022/11/15 10:38:53;;;;;;;31.10;21.30;;;12.00;99.90;;;;;;5074353;28;20039;-73
2022/11/15 10:41:31;;;;;;;28.13;20.90;;;12.30;99.90;;;;;;5079806;28;20516;-72
2022/11/15 10:44:19;;;;;;;28.20;20.15;;;12.10;99.90;;;;;;5079691;28;20182;-73
2022/11/15 10:46:55;;;;;;;30.05;21.48;;;12.20;99.90;;;;;;5089349;28;20040;-73
2022/11/15 10:49:25;;;;;;;30.67;21.70;;;12.10;99.90;;;;;;5091335;28;20046;-74
2022/11/15 10:51:54;;;;;;;33.35;22.30;;;12.40;99.90;;;;;;5072725;28;20089;-72
2022/11/15 10:54:55;;;;;;;31.58;20.95;;;12.10;99.90;;;;;;5087679;28;20402;-73
2022/11/15 10:57:48;;;;;;;31.20;23.15;;;12.20;99.90;;;;;;5071037;28;20043;-73
2022/11/15 11:00:19;;;;;;;35.07;26.60;;;12.40;99.90;;;;;;5070878;28;20045;-73
2022/11/15 11:03:00;;;;;;;36.88;24.40;;;12.30;99.90;;;;;;5071695;28;20149;-73
2022/11/15 11:05:36;;;;;;;42.70;28.65;;;12.10;99.90;;;;;;5070790;28;20513;-73
2022/11/15 11:08:23;;;;;;;47.53;33.30;;;12.20;99.90;;;;;;5071870;28;20494;-74
2022/11/15 11:11:00;;;;;;;49.08;32.78;;;12.10;99.90;;;;;;5072010;28;20078;-74
2022/11/15 11:13:28;;;;;;;47.65;31.70;;;12.10;99.90;;;;;;5070046;28;20052;-74
2022/11/15 11:16:13;;;;;;;50.22;30.98;;;12.20;99.90;;;;;;5070799;28;20198;-74
2022/11/15 11:19:06;;;;;;;39.55;26.30;;;12.50;99.90;;;;;;5070421;28;20398;-73
2022/11/15 11:21:59;;;;;;;40.80;28.63;;;12.50;99.90;;;;;;5070271;28;20045;-74
2022/11/15 11:24:40;;;;;;;40.50;27.80;;;12.20;99.90;;;;;;5071588;28;20044;-74
2022/11/15 11:27:25;;;;;;;38.63;27.90;;;12.50;99.90;;;;;;5070821;28;20139;-74
2022/11/15 11:30:21;;;;;;;45.47;28.13;;;12.60;99.90;;;;;;5070504;28;20048;-74
2022/11/15 11:33:19;;;;;;;38.65;28.48;;;12.40;99.90;;;;;;5088119;28;20050;-74
2022/11/15 11:36:17;;;;;;;39.55;27.98;;;12.30;99.90;;;;;;5090837;28;20118;-74
2022/11/15 11:39:16;;;;;;;36.58;26.25;;;12.30;99.90;;;;;;5090580;28;20050;-74
2022/11/15 11:42:03;;;;;;;35.78;25.15;;;12.50;99.90;;;;;;5090341;28;20097;-73
2022/11/15 11:45:00;;;;;;;31.58;23.20;;;12.50;99.90;;;;;;5089638;28;20046;-73
2022/11/15 11:47:39;;;;;;;34.38;22.98;;;12.70;99.90;;;;;;5090682;28;20036;-74
2022/11/15 11:50:23;;;;;;;29.88;20.45;;;12.70;99.90;;;;;;5090698;28;20040;-74
2022/11/15 11:52:57;;;;;;;30.77;21.77;;;12.60;99.90;;;;;;5090006;28;20032;-73
2022/11/15 11:55:29;;;;;;;25.98;19.77;;;12.90;99.90;;;;;;5090349;28;20032;-74
2022/11/15 11:58:22;;;;;;;25.42;19.27;;;13.00;99.90;;;;;;5090376;28;20032;-74
2022/11/15 12:01:17;;;;;;;21.60;16.00;;;12.80;99.90;;;;;;5090490;28;20044;-73
2022/11/15 12:03:45;;;;;;;17.45;12.40;;;13.00;99.90;;;;;;5089973;28;20032;-73
2022/11/15 12:06:27;;;;;;;13.65;10.65;;;13.00;99.90;;;;;;5090223;28;20036;-74
2022/11/15 12:09:12;;;;;;;11.88;9.45;;;13.10;99.90;;;;;;5090230;28;20075;-74
2022/11/15 12:11:52;;;;;;;13.02;9.88;;;13.00;99.90;;;;;;5089923;28;20051;-73
2022/11/15 12:14:45;;;;;;;12.77;8.98;;;12.90;99.90;;;;;;5089701;28;20044;-74
2022/11/15 12:17:12;;;;;;;13.10;8.27;;;12.90;99.90;;;;;;5090687;28;20093;-74
2022/11/15 12:19:42;;;;;;;11.43;8.15;;;12.90;99.90;;;;;;5089483;28;20036;-74
2022/11/15 12:22:20;;;;;;;10.77;8.75;;;12.90;99.90;;;;;;5089258;28;20040;-74
2022/11/15 12:25:03;;;;;;;12.57;8.48;;;12.90;99.90;;;;;;5091469;28;20361;-74
2022/11/15 12:27:36;;;;;;;14.23;7.00;;;12.70;99.90;;;;;;5091408;28;20052;-74
2022/11/15 12:30:09;;;;;;;7.68;6.32;;;12.80;99.90;;;;;;5090168;28;20036;-74
2022/11/15 12:32:37;;;;;;;9.68;5.78;;;12.80;99.90;;;;;;5089981;28;20084;-73
2022/11/15 12:35:21;;;;;;;7.93;6.28;;;12.80;99.90;;;;;;5073805;28;20090;-74
2022/11/15 12:37:51;;;;;;;9.52;6.07;;;12.80;99.90;;;;;;5069785;28;20047;-73
2022/11/15 12:40:22;;;;;;;7.50;5.53;;;12.60;99.90;;;;;;5071049;28;20449;-74
2022/11/15 12:42:58;;;;;;;10.02;5.30;;;12.60;99.90;;;;;;5069174;28;20044;-73
2022/11/15 12:45:24;;;;;;;7.43;5.18;;;12.60;99.90;;;;;;5070979;28;20040;-74
2022/11/15 12:47:49;;;;;;;9.55;5.65;;;12.70;99.90;;;;;;5069742;28;20389;-74
2022/11/15 12:50:16;;;;;;;9.52;5.40;;;12.70;99.90;;;;;;5069656;28;20048;-73
2022/11/15 12:53:20;;;;;;;9.07;5.00;;;12.60;99.90;;;;;;5070959;28;20056;-73
2022/11/15 12:56:11;;;;;;;8.63;6.28;;;12.50;99.90;;;;;;5072691;28;20494;-74
2022/11/15 12:58:45;;;;;;;11.27;5.63;;;12.40;99.90;;;;;;5073336;28;20092;-73
2022/11/15 13:01:34;;;;;;;7.32;5.28;;;12.40;99.90;;;;;;5072833;28;20048;-73
2022/11/15 13:04:11;;;;;;;9.35;5.65;;;12.40;99.90;;;;;;5086887;28;20511;-74